Du har inga inställningar för hoppväder.nu

Hoppväder.nu

Senast uppdaterat 01:33

UTC-tid

2020-05-31 kl. 23:33


Sol och måne

Solen går upp 3:53 och går ner 22:36 (beräknade cirkatider)
Nästa fullmåne blir om 4 dagar (2020-06-05)

METAR

ESSV (Visby)
(1453 minuter sedan)
ESSV 312320Z AUTO 03006KT 9999 NCD 10/04 Q1027=















TAF

ESSV (Visby)
(363 minuter sedan)
ESSV 311730Z 3118/3122 03012KT CAVOK=





Kodnycklar till TAF och METAR






LHP

(Visby är område se33f i Delområde 1)

Prognos är inte uppdaterad






Preliminär prognos